sensor_id;sensor_type;location;lat;lon;timestamp;P1;durP1;ratioP1;P2;durP2;ratioP2
13163;SDS011;6647;53.688;10.746;2023-04-24T00:00:04;4.38;;;3.60;;
13163;SDS011;6647;53.688;10.746;2023-04-24T00:01:26;4.72;;;3.75;;
13163;SDS011;6647;53.688;10.746;2023-04-24T00:02:47;6.25;;;3.90;;
13163;SDS011;6647;53.688;10.746;2023-04-24T00:04:08;5.20;;;4.47;;
13163;SDS011;6647;53.688;10.746;2023-04-24T00:05:30;4.20;;;3.83;;
13163;SDS011;6647;53.688;10.746;2023-04-24T00:06:51;4.50;;;4.10;;
13163;SDS011;6647;53.688;10.746;2023-04-24T00:08:17;7.05;;;4.40;;
13163;SDS011;6647;53.688;10.746;2023-04-24T00:09:38;4.38;;;3.72;;
13163;SDS011;6647;53.688;10.746;2023-04-24T00:10:59;6.05;;;4.60;;
13163;SDS011;6647;53.688;10.746;2023-04-24T00:12:20;3.30;;;3.10;;
13163;SDS011;6647;53.688;10.746;2023-04-24T00:13:41;5.22;;;3.88;;
13163;SDS011;6647;53.688;10.746;2023-04-24T00:15:02;5.35;;;4.20;;
13163;SDS011;6647;53.688;10.746;2023-04-24T00:16:24;4.15;;;3.75;;
13163;SDS011;6647;53.688;10.746;2023-04-24T00:17:45;4.78;;;3.33;;
13163;SDS011;6647;53.688;10.746;2023-04-24T00:19:06;5.05;;;3.53;;
13163;SDS011;6647;53.688;10.746;2023-04-24T00:20:27;4.40;;;3.70;;
13163;SDS011;6647;53.688;10.746;2023-04-24T00:21:52;4.00;;;3.65;;
13163;SDS011;6647;53.688;10.746;2023-04-24T00:23:14;4.50;;;4.10;;
13163;SDS011;6647;53.688;10.746;2023-04-24T00:24:35;4.38;;;3.40;;
13163;SDS011;6647;53.688;10.746;2023-04-24T00:25:55;4.43;;;4.03;;
13163;SDS011;6647;53.688;10.746;2023-04-24T00:27:16;9.15;;;4.13;;
13163;SDS011;6647;53.688;10.746;2023-04-24T00:28:37;4.47;;;3.55;;
13163;SDS011;6647;53.688;10.746;2023-04-24T00:29:58;4.75;;;3.72;;
13163;SDS011;6647;53.688;10.746;2023-04-24T00:31:19;3.40;;;3.20;;
13163;SDS011;6647;53.688;10.746;2023-04-24T00:32:40;4.07;;;3.75;;
13163;SDS011;6647;53.688;10.746;2023-04-24T00:34:01;4.50;;;4.10;;
13163;SDS011;6647;53.688;10.746;2023-04-24T00:35:22;3.97;;;3.40;;
13163;SDS011;6647;53.688;10.746;2023-04-24T00:36:43;3.95;;;3.55;;
13163;SDS011;6647;53.688;10.746;2023-04-24T00:38:04;3.78;;;3.47;;
13163;SDS011;6647;53.688;10.746;2023-04-24T00:39:25;3.55;;;3.25;;
13163;SDS011;6647;53.688;10.746;2023-04-24T00:40:46;5.00;;;3.90;;
13163;SDS011;6647;53.688;10.746;2023-04-24T00:42:08;3.65;;;3.33;;
13163;SDS011;6647;53.688;10.746;2023-04-24T00:43:29;4.50;;;4.10;;
13163;SDS011;6647;53.688;10.746;2023-04-24T00:44:50;3.85;;;3.55;;
13163;SDS011;6647;53.688;10.746;2023-04-24T00:46:12;4.88;;;3.70;;
13163;SDS011;6647;53.688;10.746;2023-04-24T00:47:33;7.25;;;3.20;;
13163;SDS011;6647;53.688;10.746;2023-04-24T00:48:55;4.55;;;4.05;;
13163;SDS011;6647;53.688;10.746;2023-04-24T00:50:16;4.00;;;3.70;;
13163;SDS011;6647;53.688;10.746;2023-04-24T00:51:38;5.55;;;4.28;;
13163;SDS011;6647;53.688;10.746;2023-04-24T00:53:00;5.40;;;3.70;;
13163;SDS011;6647;53.688;10.746;2023-04-24T00:54:21;7.10;;;4.82;;
13163;SDS011;6647;53.688;10.746;2023-04-24T00:55:42;4.60;;;3.90;;
13163;SDS011;6647;53.688;10.746;2023-04-24T00:57:03;4.95;;;4.38;;
13163;SDS011;6647;53.688;10.746;2023-04-24T00:58:24;4.88;;;4.28;;
13163;SDS011;6647;53.688;10.746;2023-04-24T00:59:45;5.60;;;5.10;;
13163;SDS011;6647;53.688;10.746;2023-04-24T01:01:06;5.40;;;4.50;;
13163;SDS011;6647;53.688;10.746;2023-04-24T01:02:28;7.95;;;4.70;;
13163;SDS011;6647;53.688;10.746;2023-04-24T01:03:50;6.80;;;4.05;;
13163;SDS011;6647;53.688;10.746;2023-04-24T01:05:13;5.47;;;4.32;;
13163;SDS011;6647;53.688;10.746;2023-04-24T01:06:35;4.75;;;4.35;;
13163;SDS011;6647;53.688;10.746;2023-04-24T01:08:01;5.25;;;4.43;;
13163;SDS011;6647;53.688;10.746;2023-04-24T01:09:23;5.18;;;4.68;;
13163;SDS011;6647;53.688;10.746;2023-04-24T01:10:44;11.90;;;4.97;;
13163;SDS011;6647;53.688;10.746;2023-04-24T01:12:06;4.72;;;4.32;;
13163;SDS011;6647;53.688;10.746;2023-04-24T01:13:27;4.72;;;4.10;;
13163;SDS011;6647;53.688;10.746;2023-04-24T01:14:49;5.40;;;4.90;;
13163;SDS011;6647;53.688;10.746;2023-04-24T01:16:10;4.60;;;4.10;;
13163;SDS011;6647;53.688;10.746;2023-04-24T01:17:31;6.00;;;4.70;;
13163;SDS011;6647;53.688;10.746;2023-04-24T01:18:52;5.82;;;4.63;;
13163;SDS011;6647;53.688;10.746;2023-04-24T01:20:13;5.35;;;4.70;;
13163;SDS011;6647;53.688;10.746;2023-04-24T01:21:35;5.13;;;4.60;;
13163;SDS011;6647;53.688;10.746;2023-04-24T01:22:57;11.98;;;4.65;;
13163;SDS011;6647;53.688;10.746;2023-04-24T01:24:19;5.95;;;4.80;;
13163;SDS011;6647;53.688;10.746;2023-04-24T01:25:40;4.20;;;3.90;;
13163;SDS011;6647;53.688;10.746;2023-04-24T01:27:01;5.53;;;4.25;;
13163;SDS011;6647;53.688;10.746;2023-04-24T01:28:22;4.72;;;4.15;;
13163;SDS011;6647;53.688;10.746;2023-04-24T01:29:43;4.32;;;3.92;;
13163;SDS011;6647;53.688;10.746;2023-04-24T01:31:04;5.10;;;4.15;;
13163;SDS011;6647;53.688;10.746;2023-04-24T01:32:25;5.07;;;4.68;;
13163;SDS011;6647;53.688;10.746;2023-04-24T01:33:46;5.80;;;4.60;;
13163;SDS011;6647;53.688;10.746;2023-04-24T01:35:08;5.82;;;4.97;;
13163;SDS011;6647;53.688;10.746;2023-04-24T01:36:29;6.22;;;4.45;;
13163;SDS011;6647;53.688;10.746;2023-04-24T01:37:52;5.30;;;4.80;;
13163;SDS011;6647;53.688;10.746;2023-04-24T01:39:13;7.78;;;5.22;;
13163;SDS011;6647;53.688;10.746;2023-04-24T01:40:35;6.03;;;4.82;;
13163;SDS011;6647;53.688;10.746;2023-04-24T01:41:56;8.35;;;4.63;;
13163;SDS011;6647;53.688;10.746;2023-04-24T01:43:17;6.13;;;4.93;;
13163;SDS011;6647;53.688;10.746;2023-04-24T01:44:38;4.57;;;4.18;;
13163;SDS011;6647;53.688;10.746;2023-04-24T01:46:00;4.88;;;4.38;;
13163;SDS011;6647;53.688;10.746;2023-04-24T01:47:21;5.35;;;4.65;;
13163;SDS011;6647;53.688;10.746;2023-04-24T01:48:42;5.10;;;4.60;;
13163;SDS011;6647;53.688;10.746;2023-04-24T01:50:04;7.18;;;5.18;;
13163;SDS011;6647;53.688;10.746;2023-04-24T01:51:26;6.13;;;4.30;;
13163;SDS011;6647;53.688;10.746;2023-04-24T01:52:47;5.45;;;4.88;;
13163;SDS011;6647;53.688;10.746;2023-04-24T01:54:08;4.97;;;4.47;;
13163;SDS011;6647;53.688;10.746;2023-04-24T01:55:29;5.97;;;4.43;;
13163;SDS011;6647;53.688;10.746;2023-04-24T01:56:50;5.53;;;4.82;;
13163;SDS011;6647;53.688;10.746;2023-04-24T01:58:11;5.68;;;4.97;;
13163;SDS011;6647;53.688;10.746;2023-04-24T01:59:32;5.50;;;4.90;;
13163;SDS011;6647;53.688;10.746;2023-04-24T02:00:56;7.05;;;4.90;;
13163;SDS011;6647;53.688;10.746;2023-04-24T02:02:19;8.27;;;4.70;;
13163;SDS011;6647;53.688;10.746;2023-04-24T02:03:41;9.35;;;5.00;;
13163;SDS011;6647;53.688;10.746;2023-04-24T02:05:02;6.68;;;4.82;;
13163;SDS011;6647;53.688;10.746;2023-04-24T02:06:25;9.80;;;4.70;;
13163;SDS011;6647;53.688;10.746;2023-04-24T02:07:46;5.60;;;5.10;;
13163;SDS011;6647;53.688;10.746;2023-04-24T02:09:07;5.75;;;5.07;;
13163;SDS011;6647;53.688;10.746;2023-04-24T02:10:28;5.00;;;4.60;;
13163;SDS011;6647;53.688;10.746;2023-04-24T02:11:49;6.95;;;5.03;;
13163;SDS011;6647;53.688;10.746;2023-04-24T02:13:10;6.82;;;5.50;;
13163;SDS011;6647;53.688;10.746;2023-04-24T02:14:31;7.15;;;5.70;;
13163;SDS011;6647;53.688;10.746;2023-04-24T02:15:51;9.02;;;5.88;;
13163;SDS011;6647;53.688;10.746;2023-04-24T02:17:12;5.93;;;5.38;;
13163;SDS011;6647;53.688;10.746;2023-04-24T02:18:34;5.30;;;4.80;;
13163;SDS011;6647;53.688;10.746;2023-04-24T02:19:55;5.88;;;4.72;;
13163;SDS011;6647;53.688;10.746;2023-04-24T02:21:16;5.57;;;5.18;;
13163;SDS011;6647;53.688;10.746;2023-04-24T02:22:37;7.43;;;5.22;;
13163;SDS011;6647;53.688;10.746;2023-04-24T02:23:58;6.70;;;5.45;;
13163;SDS011;6647;53.688;10.746;2023-04-24T02:25:19;6.95;;;5.63;;
13163;SDS011;6647;53.688;10.746;2023-04-24T02:26:40;7.00;;;5.45;;
13163;SDS011;6647;53.688;10.746;2023-04-24T02:28:01;5.63;;;5.10;;
13163;SDS011;6647;53.688;10.746;2023-04-24T02:29:22;6.43;;;5.78;;
13163;SDS011;6647;53.688;10.746;2023-04-24T02:30:43;12.73;;;4.93;;
13163;SDS011;6647;53.688;10.746;2023-04-24T02:32:04;5.50;;;5.00;;
13163;SDS011;6647;53.688;10.746;2023-04-24T02:33:25;5.00;;;4.57;;
13163;SDS011;6647;53.688;10.746;2023-04-24T02:34:46;6.07;;;5.50;;
13163;SDS011;6647;53.688;10.746;2023-04-24T02:36:07;8.48;;;5.55;;
13163;SDS011;6647;53.688;10.746;2023-04-24T02:37:27;7.03;;;5.03;;
13163;SDS011;6647;53.688;10.746;2023-04-24T02:38:48;5.85;;;5.35;;
13163;SDS011;6647;53.688;10.746;2023-04-24T02:40:09;12.75;;;5.38;;
13163;SDS011;6647;53.688;10.746;2023-04-24T02:41:30;8.57;;;5.57;;
13163;SDS011;6647;53.688;10.746;2023-04-24T02:42:52;6.90;;;5.90;;
13163;SDS011;6647;53.688;10.746;2023-04-24T02:44:13;6.15;;;5.00;;
13163;SDS011;6647;53.688;10.746;2023-04-24T02:45:34;5.40;;;4.90;;
13163;SDS011;6647;53.688;10.746;2023-04-24T02:46:55;7.18;;;5.05;;
13163;SDS011;6647;53.688;10.746;2023-04-24T02:48:16;6.18;;;5.45;;
13163;SDS011;6647;53.688;10.746;2023-04-24T02:49:37;7.72;;;5.55;;
13163;SDS011;6647;53.688;10.746;2023-04-24T02:50:58;5.70;;;5.20;;
13163;SDS011;6647;53.688;10.746;2023-04-24T02:52:19;5.65;;;5.15;;
13163;SDS011;6647;53.688;10.746;2023-04-24T02:53:40;6.45;;;5.75;;
13163;SDS011;6647;53.688;10.746;2023-04-24T02:55:01;5.90;;;5.30;;
13163;SDS011;6647;53.688;10.746;2023-04-24T02:56:21;6.80;;;5.32;;
13163;SDS011;6647;53.688;10.746;2023-04-24T02:57:42;6.80;;;5.05;;
13163;SDS011;6647;53.688;10.746;2023-04-24T02:59:03;5.53;;;5.03;;
13163;SDS011;6647;53.688;10.746;2023-04-24T03:00:24;6.50;;;5.72;;
13163;SDS011;6647;53.688;10.746;2023-04-24T03:01:45;5.95;;;5.13;;
13163;SDS011;6647;53.688;10.746;2023-04-24T03:03:06;7.32;;;5.38;;
13163;SDS011;6647;53.688;10.746;2023-04-24T03:04:27;6.65;;;4.88;;
13163;SDS011;6647;53.688;10.746;2023-04-24T03:05:48;5.40;;;4.80;;
13163;SDS011;6647;53.688;10.746;2023-04-24T03:07:09;5.53;;;5.03;;
13163;SDS011;6647;53.688;10.746;2023-04-24T03:08:30;7.15;;;5.05;;
13163;SDS011;6647;53.688;10.746;2023-04-24T03:09:50;6.40;;;5.75;;
13163;SDS011;6647;53.688;10.746;2023-04-24T03:11:11;9.00;;;5.68;;
13163;SDS011;6647;53.688;10.746;2023-04-24T03:12:32;5.60;;;5.10;;
13163;SDS011;6647;53.688;10.746;2023-04-24T03:13:53;7.70;;;5.13;;
13163;SDS011;6647;53.688;10.746;2023-04-24T03:15:14;4.85;;;4.45;;
13163;SDS011;6647;53.688;10.746;2023-04-24T03:16:36;5.57;;;5.05;;
13163;SDS011;6647;53.688;10.746;2023-04-24T03:17:57;5.18;;;4.50;;
13163;SDS011;6647;53.688;10.746;2023-04-24T03:19:18;4.70;;;4.30;;
13163;SDS011;6647;53.688;10.746;2023-04-24T03:20:39;5.10;;;4.45;;
13163;SDS011;6647;53.688;10.746;2023-04-24T03:22:01;5.15;;;4.65;;
13163;SDS011;6647;53.688;10.746;2023-04-24T03:23:23;4.25;;;3.90;;
13163;SDS011;6647;53.688;10.746;2023-04-24T03:24:44;5.03;;;4.53;;
13163;SDS011;6647;53.688;10.746;2023-04-24T03:26:04;5.25;;;4.75;;
13163;SDS011;6647;53.688;10.746;2023-04-24T03:27:25;4.10;;;3.80;;
13163;SDS011;6647;53.688;10.746;2023-04-24T03:28:46;4.72;;;4.30;;
13163;SDS011;6647;53.688;10.746;2023-04-24T03:30:07;6.50;;;4.30;;
13163;SDS011;6647;53.688;10.746;2023-04-24T03:31:28;4.95;;;4.40;;
13163;SDS011;6647;53.688;10.746;2023-04-24T03:32:50;8.10;;;4.35;;
13163;SDS011;6647;53.688;10.746;2023-04-24T03:34:11;3.85;;;3.55;;
13163;SDS011;6647;53.688;10.746;2023-04-24T03:35:31;5.65;;;4.47;;
13163;SDS011;6647;53.688;10.746;2023-04-24T03:36:52;5.75;;;4.30;;
13163;SDS011;6647;53.688;10.746;2023-04-24T03:38:13;4.15;;;3.85;;
13163;SDS011;6647;53.688;10.746;2023-04-24T03:39:34;3.40;;;3.15;;
13163;SDS011;6647;53.688;10.746;2023-04-24T03:40:55;4.82;;;4.00;;
13163;SDS011;6647;53.688;10.746;2023-04-24T03:42:16;5.50;;;3.78;;
13163;SDS011;6647;53.688;10.746;2023-04-24T03:43:37;3.85;;;3.55;;
13163;SDS011;6647;53.688;10.746;2023-04-24T03:44:58;3.60;;;3.30;;
13163;SDS011;6647;53.688;10.746;2023-04-24T03:46:19;4.55;;;4.15;;
13163;SDS011;6647;53.688;10.746;2023-04-24T03:47:40;3.92;;;3.60;;
13163;SDS011;6647;53.688;10.746;2023-04-24T03:49:00;4.18;;;3.78;;
13163;SDS011;6647;53.688;10.746;2023-04-24T03:50:21;3.85;;;3.55;;
13163;SDS011;6647;53.688;10.746;2023-04-24T03:51:42;4.35;;;3.95;;
13163;SDS011;6647;53.688;10.746;2023-04-24T03:53:03;4.45;;;4.00;;
13163;SDS011;6647;53.688;10.746;2023-04-24T03:54:24;4.07;;;3.67;;
13163;SDS011;6647;53.688;10.746;2023-04-24T03:55:45;4.20;;;3.80;;
13163;SDS011;6647;53.688;10.746;2023-04-24T03:57:06;5.78;;;3.72;;
13163;SDS011;6647;53.688;10.746;2023-04-24T03:58:27;5.20;;;3.67;;
13163;SDS011;6647;53.688;10.746;2023-04-24T03:59:48;4.03;;;3.70;;
13163;SDS011;6647;53.688;10.746;2023-04-24T04:01:13;5.50;;;4.15;;
13163;SDS011;6647;53.688;10.746;2023-04-24T04:02:36;3.85;;;3.50;;
13163;SDS011;6647;53.688;10.746;2023-04-24T04:03:57;4.03;;;3.63;;
13163;SDS011;6647;53.688;10.746;2023-04-24T04:05:18;3.58;;;3.20;;
13163;SDS011;6647;53.688;10.746;2023-04-24T04:06:38;4.40;;;3.92;;
13163;SDS011;6647;53.688;10.746;2023-04-24T04:07:59;7.10;;;4.05;;
13163;SDS011;6647;53.688;10.746;2023-04-24T04:09:20;4.10;;;3.50;;
13163;SDS011;6647;53.688;10.746;2023-04-24T04:10:41;4.78;;;3.95;;
13163;SDS011;6647;53.688;10.746;2023-04-24T04:12:02;4.30;;;3.88;;
13163;SDS011;6647;53.688;10.746;2023-04-24T04:13:23;4.43;;;4.03;;
13163;SDS011;6647;53.688;10.746;2023-04-24T04:14:44;4.63;;;4.22;;
13163;SDS011;6647;53.688;10.746;2023-04-24T04:16:05;4.85;;;4.35;;
13163;SDS011;6647;53.688;10.746;2023-04-24T04:17:25;4.25;;;3.80;;
13163;SDS011;6647;53.688;10.746;2023-04-24T04:18:46;5.38;;;4.35;;
13163;SDS011;6647;53.688;10.746;2023-04-24T04:20:07;5.20;;;4.40;;
13163;SDS011;6647;53.688;10.746;2023-04-24T04:21:32;7.10;;;3.92;;
13163;SDS011;6647;53.688;10.746;2023-04-24T04:22:53;5.65;;;4.13;;
13163;SDS011;6647;53.688;10.746;2023-04-24T04:24:13;4.35;;;3.95;;
13163;SDS011;6647;53.688;10.746;2023-04-24T04:25:34;4.70;;;4.30;;
13163;SDS011;6647;53.688;10.746;2023-04-24T04:26:55;6.80;;;4.20;;
13163;SDS011;6647;53.688;10.746;2023-04-24T04:28:18;3.97;;;3.60;;
13163;SDS011;6647;53.688;10.746;2023-04-24T04:29:40;4.25;;;3.53;;
13163;SDS011;6647;53.688;10.746;2023-04-24T04:31:01;3.40;;;3.10;;
13163;SDS011;6647;53.688;10.746;2023-04-24T04:32:22;4.00;;;3.60;;
13163;SDS011;6647;53.688;10.746;2023-04-24T04:33:43;3.40;;;3.10;;
13163;SDS011;6647;53.688;10.746;2023-04-24T04:35:04;3.13;;;2.90;;
13163;SDS011;6647;53.688;10.746;2023-04-24T04:36:25;2.78;;;2.58;;
13163;SDS011;6647;53.688;10.746;2023-04-24T04:37:46;3.40;;;3.10;;
13163;SDS011;6647;53.688;10.746;2023-04-24T04:39:07;2.70;;;2.50;;
13163;SDS011;6647;53.688;10.746;2023-04-24T04:40:27;2.67;;;2.47;;
13163;SDS011;6647;53.688;10.746;2023-04-24T04:41:50;2.60;;;2.40;;
13163;SDS011;6647;53.688;10.746;2023-04-24T04:43:11;2.42;;;2.22;;
13163;SDS011;6647;53.688;10.746;2023-04-24T04:44:33;3.50;;;1.90;;
13163;SDS011;6647;53.688;10.746;2023-04-24T04:45:57;5.88;;;2.30;;
13163;SDS011;6647;53.688;10.746;2023-04-24T04:47:18;2.05;;;1.85;;
13163;SDS011;6647;53.688;10.746;2023-04-24T04:48:44;8.43;;;3.13;;
13163;SDS011;6647;53.688;10.746;2023-04-24T04:50:06;2.15;;;2.00;;
13163;SDS011;6647;53.688;10.746;2023-04-24T04:51:27;3.88;;;2.20;;
13163;SDS011;6647;53.688;10.746;2023-04-24T04:52:48;2.10;;;2.00;;
13163;SDS011;6647;53.688;10.746;2023-04-24T04:54:08;2.55;;;2.33;;
13163;SDS011;6647;53.688;10.746;2023-04-24T04:55:29;3.13;;;2.00;;
13163;SDS011;6647;53.688;10.746;2023-04-24T04:56:50;2.45;;;2.00;;
13163;SDS011;6647;53.688;10.746;2023-04-24T04:58:11;3.35;;;1.75;;
13163;SDS011;6647;53.688;10.746;2023-04-24T04:59:32;2.15;;;2.05;;
13163;SDS011;6647;53.688;10.746;2023-04-24T05:00:53;2.05;;;1.77;;
13163;SDS011;6647;53.688;10.746;2023-04-24T05:02:13;1.90;;;1.80;;
13163;SDS011;6647;53.688;10.746;2023-04-24T05:03:35;2.97;;;1.98;;
13163;SDS011;6647;53.688;10.746;2023-04-24T05:04:56;2.60;;;1.70;;
13163;SDS011;6647;53.688;10.746;2023-04-24T05:06:16;4.72;;;1.75;;
13163;SDS011;6647;53.688;10.746;2023-04-24T05:07:37;1.67;;;1.58;;
13163;SDS011;6647;53.688;10.746;2023-04-24T05:08:58;2.55;;;1.70;;
13163;SDS011;6647;53.688;10.746;2023-04-24T05:10:19;1.83;;;1.70;;
13163;SDS011;6647;53.688;10.746;2023-04-24T05:11:40;1.63;;;1.52;;
13163;SDS011;6647;53.688;10.746;2023-04-24T05:13:01;1.80;;;1.70;;
13163;SDS011;6647;53.688;10.746;2023-04-24T05:14:22;1.50;;;1.40;;
13163;SDS011;6647;53.688;10.746;2023-04-24T05:15:43;1.58;;;1.48;;
13163;SDS011;6647;53.688;10.746;2023-04-24T05:17:03;1.52;;;1.30;;
13163;SDS011;6647;53.688;10.746;2023-04-24T05:18:25;1.55;;;1.45;;
13163;SDS011;6647;53.688;10.746;2023-04-24T05:19:45;1.60;;;1.50;;
13163;SDS011;6647;53.688;10.746;2023-04-24T05:21:06;1.50;;;1.40;;
13163;SDS011;6647;53.688;10.746;2023-04-24T05:22:27;2.17;;;1.27;;
13163;SDS011;6647;53.688;10.746;2023-04-24T05:23:48;1.17;;;1.10;;
13163;SDS011;6647;53.688;10.746;2023-04-24T05:25:09;1.38;;;1.27;;
13163;SDS011;6647;53.688;10.746;2023-04-24T05:26:30;2.00;;;1.20;;
13163;SDS011;6647;53.688;10.746;2023-04-24T05:27:51;1.30;;;1.20;;
13163;SDS011;6647;53.688;10.746;2023-04-24T05:29:13;1.40;;;1.30;;
13163;SDS011;6647;53.688;10.746;2023-04-24T05:30:34;1.52;;;1.42;;
13163;SDS011;6647;53.688;10.746;2023-04-24T05:31:55;1.75;;;1.58;;
13163;SDS011;6647;53.688;10.746;2023-04-24T05:33:16;1.50;;;1.40;;
13163;SDS011;6647;53.688;10.746;2023-04-24T05:34:37;1.40;;;1.30;;
13163;SDS011;6647;53.688;10.746;2023-04-24T05:35:58;3.15;;;1.35;;
13163;SDS011;6647;53.688;10.746;2023-04-24T05:37:19;1.30;;;1.20;;
13163;SDS011;6647;53.688;10.746;2023-04-24T05:38:40;3.45;;;1.30;;
13163;SDS011;6647;53.688;10.746;2023-04-24T05:40:01;1.58;;;1.48;;
13163;SDS011;6647;53.688;10.746;2023-04-24T05:41:24;1.40;;;1.30;;
13163;SDS011;6647;53.688;10.746;2023-04-24T05:42:45;1.88;;;1.50;;
13163;SDS011;6647;53.688;10.746;2023-04-24T05:44:06;1.40;;;1.30;;
13163;SDS011;6647;53.688;10.746;2023-04-24T05:45:27;1.88;;;1.27;;
13163;SDS011;6647;53.688;10.746;2023-04-24T05:46:48;1.58;;;1.45;;
13163;SDS011;6647;53.688;10.746;2023-04-24T05:48:09;1.75;;;1.10;;
13163;SDS011;6647;53.688;10.746;2023-04-24T05:49:29;1.65;;;1.20;;
13163;SDS011;6647;53.688;10.746;2023-04-24T05:50:50;1.58;;;1.48;;
13163;SDS011;6647;53.688;10.746;2023-04-24T05:52:12;2.35;;;1.20;;
13163;SDS011;6647;53.688;10.746;2023-04-24T05:53:33;1.65;;;1.13;;
13163;SDS011;6647;53.688;10.746;2023-04-24T05:54:54;1.70;;;1.20;;
13163;SDS011;6647;53.688;10.746;2023-04-24T05:56:15;1.42;;;1.27;;
13163;SDS011;6647;53.688;10.746;2023-04-24T05:57:36;1.55;;;1.10;;
13163;SDS011;6647;53.688;10.746;2023-04-24T05:58:58;1.30;;;1.20;;
13163;SDS011;6647;53.688;10.746;2023-04-24T06:00:19;1.20;;;1.10;;
13163;SDS011;6647;53.688;10.746;2023-04-24T06:01:40;1.30;;;0.93;;
13163;SDS011;6647;53.688;10.746;2023-04-24T06:03:01;1.00;;;0.90;;
13163;SDS011;6647;53.688;10.746;2023-04-24T06:04:23;1.33;;;1.05;;
13163;SDS011;6647;53.688;10.746;2023-04-24T06:05:44;3.45;;;1.10;;
13163;SDS011;6647;53.688;10.746;2023-04-24T06:07:06;1.42;;;0.90;;
13163;SDS011;6647;53.688;10.746;2023-04-24T06:08:26;1.20;;;1.10;;
13163;SDS011;6647;53.688;10.746;2023-04-24T06:09:47;0.90;;;0.88;;
13163;SDS011;6647;53.688;10.746;2023-04-24T06:11:08;0.90;;;0.90;;
13163;SDS011;6647;53.688;10.746;2023-04-24T06:12:29;1.10;;;1.10;;
13163;SDS011;6647;53.688;10.746;2023-04-24T06:13:50;2.55;;;1.20;;
13163;SDS011;6647;53.688;10.746;2023-04-24T06:15:12;0.90;;;0.90;;
13163;SDS011;6647;53.688;10.746;2023-04-24T06:16:33;3.17;;;1.00;;
13163;SDS011;6647;53.688;10.746;2023-04-24T06:17:54;0.90;;;0.80;;
13163;SDS011;6647;53.688;10.746;2023-04-24T06:19:15;2.10;;;0.70;;
13163;SDS011;6647;53.688;10.746;2023-04-24T06:20:36;1.38;;;1.20;;
13163;SDS011;6647;53.688;10.746;2023-04-24T06:21:56;0.90;;;0.90;;
13163;SDS011;6647;53.688;10.746;2023-04-24T06:23:17;1.20;;;1.10;;
13163;SDS011;6647;53.688;10.746;2023-04-24T06:24:41;1.85;;;0.70;;
13163;SDS011;6647;53.688;10.746;2023-04-24T06:26:02;1.70;;;1.30;;
13163;SDS011;6647;53.688;10.746;2023-04-24T06:27:23;1.10;;;1.00;;
13163;SDS011;6647;53.688;10.746;2023-04-24T06:28:44;0.80;;;0.80;;
13163;SDS011;6647;53.688;10.746;2023-04-24T06:30:05;0.98;;;0.80;;
13163;SDS011;6647;53.688;10.746;2023-04-24T06:31:27;1.08;;;0.95;;
13163;SDS011;6647;53.688;10.746;2023-04-24T06:32:48;1.08;;;0.98;;
13163;SDS011;6647;53.688;10.746;2023-04-24T06:34:09;1.10;;;1.00;;
13163;SDS011;6647;53.688;10.746;2023-04-24T06:35:30;2.75;;;1.23;;
13163;SDS011;6647;53.688;10.746;2023-04-24T06:36:50;1.70;;;1.10;;
13163;SDS011;6647;53.688;10.746;2023-04-24T06:38:11;1.08;;;0.90;;
13163;SDS011;6647;53.688;10.746;2023-04-24T06:39:32;1.65;;;1.10;;
13163;SDS011;6647;53.688;10.746;2023-04-24T06:40:53;0.80;;;0.80;;
13163;SDS011;6647;53.688;10.746;2023-04-24T06:42:14;1.10;;;0.90;;
13163;SDS011;6647;53.688;10.746;2023-04-24T06:43:35;1.13;;;0.90;;
13163;SDS011;6647;53.688;10.746;2023-04-24T06:44:56;1.00;;;0.90;;
13163;SDS011;6647;53.688;10.746;2023-04-24T06:46:17;5.57;;;1.15;;
13163;SDS011;6647;53.688;10.746;2023-04-24T06:47:38;1.25;;;1.15;;
13163;SDS011;6647;53.688;10.746;2023-04-24T06:48:59;1.40;;;1.30;;
13163;SDS011;6647;53.688;10.746;2023-04-24T06:50:20;1.40;;;1.30;;
13163;SDS011;6647;53.688;10.746;2023-04-24T06:51:41;3.60;;;1.33;;
13163;SDS011;6647;53.688;10.746;2023-04-24T06:53:03;2.97;;;1.48;;
13163;SDS011;6647;53.688;10.746;2023-04-24T06:54:23;1.20;;;1.10;;
13163;SDS011;6647;53.688;10.746;2023-04-24T06:55:44;2.38;;;1.20;;
13163;SDS011;6647;53.688;10.746;2023-04-24T06:57:06;1.45;;;1.35;;
13163;SDS011;6647;53.688;10.746;2023-04-24T06:58:27;2.15;;;1.38;;
13163;SDS011;6647;53.688;10.746;2023-04-24T06:59:48;2.22;;;1.20;;
13163;SDS011;6647;53.688;10.746;2023-04-24T07:01:09;1.35;;;1.25;;
13163;SDS011;6647;53.688;10.746;2023-04-24T07:02:31;2.40;;;1.55;;
13163;SDS011;6647;53.688;10.746;2023-04-24T07:03:51;1.48;;;1.30;;
13163;SDS011;6647;53.688;10.746;2023-04-24T07:05:12;1.40;;;1.30;;
13163;SDS011;6647;53.688;10.746;2023-04-24T07:06:35;2.05;;;1.50;;
13163;SDS011;6647;53.688;10.746;2023-04-24T07:07:57;2.03;;;1.42;;
13163;SDS011;6647;53.688;10.746;2023-04-24T07:09:18;1.27;;;1.20;;
13163;SDS011;6647;53.688;10.746;2023-04-24T07:10:39;2.75;;;1.30;;
13163;SDS011;6647;53.688;10.746;2023-04-24T07:12:00;1.70;;;1.50;;
13163;SDS011;6647;53.688;10.746;2023-04-24T07:13:21;1.50;;;1.40;;
13163;SDS011;6647;53.688;10.746;2023-04-24T07:14:42;1.40;;;1.30;;
13163;SDS011;6647;53.688;10.746;2023-04-24T07:16:03;1.50;;;1.40;;
13163;SDS011;6647;53.688;10.746;2023-04-24T07:17:25;1.70;;;1.60;;
13163;SDS011;6647;53.688;10.746;2023-04-24T07:18:46;1.42;;;1.33;;
13163;SDS011;6647;53.688;10.746;2023-04-24T07:20:07;1.17;;;1.17;;
13163;SDS011;6647;53.688;10.746;2023-04-24T07:21:30;2.17;;;1.40;;
13163;SDS011;6647;53.688;10.746;2023-04-24T07:22:51;1.60;;;1.45;;
13163;SDS011;6647;53.688;10.746;2023-04-24T07:24:14;1.45;;;1.20;;
13163;SDS011;6647;53.688;10.746;2023-04-24T07:25:35;1.30;;;1.20;;
13163;SDS011;6647;53.688;10.746;2023-04-24T07:26:56;1.38;;;1.27;;
13163;SDS011;6647;53.688;10.746;2023-04-24T07:28:17;2.17;;;1.35;;
13163;SDS011;6647;53.688;10.746;2023-04-24T07:29:38;1.50;;;1.40;;
13163;SDS011;6647;53.688;10.746;2023-04-24T07:31:00;1.85;;;1.38;;
13163;SDS011;6647;53.688;10.746;2023-04-24T07:32:21;1.45;;;1.35;;
13163;SDS011;6647;53.688;10.746;2023-04-24T07:33:42;2.30;;;1.70;;
13163;SDS011;6647;53.688;10.746;2023-04-24T07:35:03;1.75;;;1.65;;
13163;SDS011;6647;53.688;10.746;2023-04-24T07:36:24;1.60;;;1.50;;
13163;SDS011;6647;53.688;10.746;2023-04-24T07:37:46;1.60;;;1.50;;
13163;SDS011;6647;53.688;10.746;2023-04-24T07:39:07;1.35;;;1.25;;
13163;SDS011;6647;53.688;10.746;2023-04-24T07:40:28;1.30;;;1.20;;
13163;SDS011;6647;53.688;10.746;2023-04-24T07:41:49;1.45;;;1.35;;
13163;SDS011;6647;53.688;10.746;2023-04-24T07:43:10;2.08;;;1.67;;
13163;SDS011;6647;53.688;10.746;2023-04-24T07:44:31;2.20;;;1.80;;
13163;SDS011;6647;53.688;10.746;2023-04-24T07:45:52;1.70;;;1.60;;
13163;SDS011;6647;53.688;10.746;2023-04-24T07:47:13;2.00;;;1.52;;
13163;SDS011;6647;53.688;10.746;2023-04-24T07:48:37;1.48;;;1.38;;
13163;SDS011;6647;53.688;10.746;2023-04-24T07:49:58;1.63;;;1.52;;
13163;SDS011;6647;53.688;10.746;2023-04-24T07:51:19;3.20;;;1.70;;
13163;SDS011;6647;53.688;10.746;2023-04-24T07:52:40;1.55;;;1.45;;
13163;SDS011;6647;53.688;10.746;2023-04-24T07:54:01;2.67;;;1.70;;
13163;SDS011;6647;53.688;10.746;2023-04-24T07:55:22;2.42;;;1.70;;
13163;SDS011;6647;53.688;10.746;2023-04-24T07:56:43;1.60;;;1.50;;
13163;SDS011;6647;53.688;10.746;2023-04-24T07:58:05;2.28;;;1.60;;
13163;SDS011;6647;53.688;10.746;2023-04-24T07:59:26;3.03;;;1.80;;
13163;SDS011;6647;53.688;10.746;2023-04-24T08:00:46;2.13;;;1.60;;
13163;SDS011;6647;53.688;10.746;2023-04-24T08:02:07;3.38;;;2.10;;
13163;SDS011;6647;53.688;10.746;2023-04-24T08:03:29;1.70;;;1.35;;
13163;SDS011;6647;53.688;10.746;2023-04-24T08:04:50;1.70;;;1.60;;
13163;SDS011;6647;53.688;10.746;2023-04-24T08:06:11;2.00;;;1.90;;
13163;SDS011;6647;53.688;10.746;2023-04-24T08:07:32;1.85;;;1.75;;
13163;SDS011;6647;53.688;10.746;2023-04-24T08:08:54;1.70;;;1.50;;